Milwaukee, Wisconsin
Current Conditions -  °F | °C
As of 5:52 PM on Friday 24 Oct 2014 (Local Time) from KMKE Reporting Station
Broken Clouds Broken Clouds  
Wind Chill: 58°   Ceiling: 25000
Heat Index: 58°   Visibility: 10mi
Dew Point: 48°   Wind: 5mph
Humidity: 70%   Direction: 210°SSW
Pressure: 29.94"   Gusts: NA
Location:  43.04°N, 87.91°W
Report Text: KMKE 242252Z 21004KT 10SM SCT095 BKN250 14/09 A2994 RMK AO2 SLP139 T01440089
Loading
Personal Weather Stations






























Interactive Weather Map
Tropical Storm Tracking
New forecast layout! Learn more

10-Day Weather Forecast

Advertisements
Track Severe Weather on mobile